Time;durP1;ratioP1;P1;durP2;ratioP2;P2;SDS_P1;SDS_P2;PMS_P1;PMS_P2;Temp;Humidity;BMP_temperature;BMP_pressure;BME280_temperature;BME280_humidity;BME280_pressure;Samples;Min_cycle;Max_cycle;Signal;HPM_P1;HPM_P2
2022/12/31 00:00:18;;;;;;;0.20;0.20;;;;;;;-145.06;100.00;60892.56;5893157;23;20010;-91
2022/12/31 00:02:56;;;;;;;0.10;0.10;;;;;;;-145.06;100.00;60892.56;5892008;23;20007;-91
2022/12/31 00:05:36;;;;;;;0.10;0.10;;;;;;;-145.06;100.00;60892.56;5894210;23;20756;-90
2022/12/31 00:08:15;;;;;;;0.10;0.10;;;;;;;-145.06;100.00;60892.56;5893720;23;20010;-90
2022/12/31 00:10:54;;;;;;;0.20;0.20;;;;;;;-145.06;100.00;60892.56;5893713;23;20010;-91
2022/12/31 00:13:36;;;;;;;0.17;0.10;;;;;;;-145.06;100.00;60892.56;5893426;23;20006;-90
2022/12/31 00:16:27;;;;;;;0.20;0.20;;;;;;;-145.06;100.00;60892.56;5893022;23;20062;-90
2022/12/31 00:19:09;;;;;;;0.20;0.20;;;;;;;-145.06;100.00;60892.56;5892300;23;20418;-90
2022/12/31 00:21:48;;;;;;;0.30;0.20;;;;;;;-145.06;100.00;60892.56;5892243;23;20445;-90
2022/12/31 00:24:30;;;;;;;0.10;0.10;;;;;;;-145.06;100.00;60892.56;5892637;23;20030;-92
2022/12/31 00:27:09;;;;;;;0.20;0.10;;;;;;;-145.06;100.00;60892.56;5892504;23;20010;-89
2022/12/31 00:29:48;;;;;;;0.20;0.20;;;;;;;-145.06;100.00;60892.56;5892873;23;20010;-90
2022/12/31 00:32:30;;;;;;;0.13;0.13;;;;;;;-145.06;100.00;60892.56;5892344;23;20238;-91
2022/12/31 00:35:10;;;;;;;0.10;0.10;;;;;;;-145.06;100.00;60892.56;5892544;23;20006;-90
2022/12/31 00:37:51;;;;;;;0.10;0.10;;;;;;;-145.06;100.00;60892.56;5892183;23;20007;-91
2022/12/31 00:40:30;;;;;;;0.20;0.20;;;;;;;-145.06;100.00;60892.56;5893237;23;20006;-89
2022/12/31 00:43:10;;;;;;;0.20;0.20;;;;;;;-145.06;100.00;60892.56;5891540;23;20030;-90
2022/12/31 00:45:49;;;;;;;0.20;0.20;;;;;;;-145.06;100.00;60892.56;5895272;23;20010;-90
2022/12/31 00:48:28;;;;;;;0.10;0.10;;;;;;;-145.06;100.00;60892.56;5895360;23;20002;-91
2022/12/31 00:51:12;;;;;;;0.10;0.10;;;;;;;-145.06;100.00;60892.56;5893869;23;20014;-91
2022/12/31 00:54:00;;;;;;;0.10;0.10;;;;;;;-145.06;100.00;60892.56;5873273;23;20429;-91
2022/12/31 00:56:39;;;;;;;0.10;0.10;;;;;;;-145.06;100.00;60892.56;5872619;23;20010;-90
2022/12/31 00:59:18;;;;;;;0.20;0.20;;;;;;;-145.06;100.00;60892.56;5873280;23;20010;-90
2022/12/31 01:01:58;;;;;;;0.10;0.10;;;;;;;-145.06;100.00;60892.56;5874280;23;20006;-92
2022/12/31 01:04:37;;;;;;;0.10;0.10;;;;;;;-145.06;100.00;60892.56;5874551;23;20006;-91
2022/12/31 01:07:16;;;;;;;0.10;0.10;;;;;;;-145.06;100.00;60892.56;5873004;23;20010;-90
2022/12/31 01:09:56;;;;;;;0.10;0.10;;;;;;;-145.06;100.00;60892.56;5873191;23;20010;-91
2022/12/31 01:12:35;;;;;;;0.10;0.10;;;;;;;-145.06;100.00;60892.56;5873289;23;19998;-91
2022/12/31 01:15:15;;;;;;;0.05;0.05;;;;;;;-145.06;100.00;60892.56;5871482;23;20010;-89
2022/12/31 01:17:54;;;;;;;0.30;0.20;;;;;;;-145.06;100.00;60892.56;5870480;23;20329;-91
2022/12/31 01:20:38;;;;;;;1.23;0.20;;;;;;;-145.06;100.00;60892.56;5871764;23;20010;-89
2022/12/31 01:23:17;;;;;;;0.52;0.13;;;;;;;-145.06;100.00;60892.56;5871549;23;20011;-90
2022/12/31 01:26:00;;;;;;;0.10;0.10;;;;;;;-145.06;100.00;60892.56;5872662;23;20010;-90
2022/12/31 01:28:40;;;;;;;0.10;0.10;;;;;;;-145.06;100.00;60892.56;5881152;23;20030;-91
2022/12/31 01:31:22;;;;;;;0.17;0.17;;;;;;;-145.06;100.00;60892.56;5870545;23;20095;-90
2022/12/31 01:34:01;;;;;;;0.10;0.10;;;;;;;-145.06;100.00;60892.56;5870552;23;20029;-90
2022/12/31 01:36:41;;;;;;;0.68;0.10;;;;;;;-145.06;100.00;60892.56;5874227;23;20011;-90
2022/12/31 01:39:20;;;;;;;1.65;0.10;;;;;;;-145.06;100.00;60892.56;5871661;23;20028;-90
2022/12/31 01:42:00;;;;;;;0.20;0.20;;;;;;;-145.06;100.00;60892.56;5871788;23;20006;-90
2022/12/31 01:44:48;;;;;;;0.10;0.10;;;;;;;-145.06;100.00;60892.56;5872094;23;20002;-90
2022/12/31 01:47:48;;;;;;;0.10;0.10;;;;;;;-145.06;100.00;60892.56;5871019;23;20236;-90
2022/12/31 01:50:56;;;;;;;0.32;0.20;;;;;;;-145.06;100.00;60892.56;5911204;23;19994;-92
2022/12/31 01:54:14;;;;;;;0.20;0.20;;;;;;;-145.06;100.00;60892.56;5886743;23;20002;-91
2022/12/31 01:56:55;;;;;;;0.15;0.10;;;;;;;-145.06;100.00;60892.56;5893282;23;20211;-90
2022/12/31 01:59:52;;;;;;;0.20;0.20;;;;;;;-145.06;100.00;60892.56;5892000;23;20026;-92
2022/12/31 02:02:52;;;;;;;0.90;0.40;;;;;;;-145.06;100.00;60892.56;5892961;23;20006;-91
2022/12/31 02:05:52;;;;;;;0.20;0.20;;;;;;;-145.06;100.00;60892.56;5893524;23;20018;-90
2022/12/31 02:08:33;;;;;;;0.10;0.10;;;;;;;-145.06;100.00;60892.56;5892675;23;20010;-90
2022/12/31 02:11:49;;;;;;;0.25;0.20;;;;;;;-145.06;100.00;60892.56;5892035;23;20457;-91
2022/12/31 02:14:35;;;;;;;0.17;0.17;;;;;;;-145.06;100.00;60892.56;5889605;23;20007;-91
2022/12/31 02:18:17;;;;;;;0.10;0.10;;;;;;;-145.06;100.00;60892.56;5890434;23;20014;-92
2022/12/31 02:21:27;;;;;;;0.13;0.13;;;;;;;-145.06;100.00;60892.56;5839700;23;20003;-92
2022/12/31 02:24:43;;;;;;;;;;;;;;;;;;;;;
2022/12/31 02:28:09;;;;;;;0.38;0.20;;;;;;;-145.06;100.00;60892.56;5870887;23;20067;-92
2022/12/31 02:31:07;;;;;;;0.57;0.20;;;;;;;-145.06;100.00;60892.56;5836748;23;20493;-91
2022/12/31 02:34:02;;;;;;;0.13;0.10;;;;;;;-145.06;100.00;60892.56;5890228;23;20006;-91
2022/12/31 02:36:46;;;;;;;0.38;0.10;;;;;;;-145.06;100.00;60892.56;5889901;23;20010;-91
2022/12/31 02:39:28;;;;;;;0.20;0.20;;;;;;;-145.06;100.00;60892.56;5889039;23;20010;-91
2022/12/31 02:42:34;;;;;;;0.20;0.20;;;;;;;-145.06;100.00;60892.56;5887926;23;20010;-92
2022/12/31 02:45:19;;;;;;;1.42;0.13;;;;;;;-145.06;100.00;60892.56;5886496;23;20006;-90
2022/12/31 02:48:09;;;;;;;0.20;0.20;;;;;;;-145.06;100.00;60892.56;5888659;23;20450;-90
2022/12/31 02:50:54;;;;;;;0.10;0.10;;;;;;;-145.06;100.00;60892.56;5888370;23;20033;-91
2022/12/31 02:53:52;;;;;;;1.35;0.20;;;;;;;-145.06;100.00;60892.56;5888428;23;20003;-90
2022/12/31 02:57:11;;;;;;;0.45;0.30;;;;;;;-145.06;100.00;60892.56;5892904;23;20007;-91
2022/12/31 03:03:00;;;;;;;0.40;0.30;;;;;;;-145.06;100.00;60892.56;5857628;23;20010;-91
2022/12/31 03:05:42;;;;;;;0.30;0.20;;;;;;;-145.06;100.00;60892.56;5891384;23;20002;-91
2022/12/31 03:08:27;;;;;;;0.13;0.13;;;;;;;-145.06;100.00;60892.56;5894110;23;20047;-91
2022/12/31 03:12:44;;;;;;;0.10;0.10;;;;;;;-145.06;100.00;60892.56;5892491;23;20310;-91
2022/12/31 03:14:08;;;;;;;0.22;0.17;;;;;;;-145.06;100.00;60892.56;5895177;23;20014;-91
2022/12/31 03:23:15;;;;;;;0.15;0.13;;;;;;;-145.06;100.00;60892.56;5905090;23;20010;-90
2022/12/31 03:25:55;;;;;;;0.50;0.20;;;;;;;-145.06;100.00;60892.56;5893656;23;20010;-91
2022/12/31 03:28:34;;;;;;;0.20;0.20;;;;;;;-145.06;100.00;60892.56;5893207;23;20085;-90
2022/12/31 03:31:15;;;;;;;0.22;0.15;;;;;;;-145.06;100.00;60892.56;5891551;23;20010;-90
2022/12/31 03:34:03;;;;;;;;;;;;;;;-145.06;100.00;60892.56;5893590;23;20062;-91
2022/12/31 03:36:52;;;;;;;0.20;0.20;;;;;;;-145.06;100.00;60892.56;5895883;23;19909;-91
2022/12/31 03:39:32;;;;;;;0.20;0.20;;;;;;;-145.06;100.00;60892.56;5893618;23;20010;-90
2022/12/31 03:42:11;;;;;;;0.10;0.10;;;;;;;-145.06;100.00;60892.56;5892844;23;20441;-90
2022/12/31 03:44:53;;;;;;;0.20;0.20;;;;;;;-145.06;100.00;60892.56;5893120;23;20010;-91
2022/12/31 03:47:41;;;;;;;0.75;0.28;;;;;;;-145.06;100.00;60892.56;5893242;23;20085;-90
2022/12/31 03:50:20;;;;;;;0.20;0.20;;;;;;;-145.06;100.00;60892.56;5891782;23;20311;-91
2022/12/31 03:52:59;;;;;;;0.20;0.20;;;;;;;-145.06;100.00;60892.56;5895932;23;20054;-91
2022/12/31 03:55:44;;;;;;;0.20;0.20;;;;;;;-145.06;100.00;60892.56;5901452;23;20009;-92
2022/12/31 03:58:24;;;;;;;0.20;0.20;;;;;;;-145.06;100.00;60892.56;5913880;23;19998;-90
2022/12/31 04:01:03;;;;;;;0.77;0.20;;;;;;;-145.06;100.00;60892.56;5918107;23;19998;-92
2022/12/31 04:04:11;;;;;;;0.30;0.20;;;;;;;-145.06;100.00;60892.56;5902873;23;20061;-91
2022/12/31 04:06:54;;;;;;;0.77;0.30;;;;;;;-145.06;100.00;60892.56;5901324;23;20006;-91
2022/12/31 04:09:33;;;;;;;0.55;0.30;;;;;;;-145.06;100.00;60892.56;5902080;23;20065;-91
2022/12/31 04:12:12;;;;;;;0.50;0.30;;;;;;;-145.06;100.00;60892.56;5931252;23;20014;-91
2022/12/31 04:15:04;;;;;;;1.17;0.30;;;;;;;-145.06;100.00;60892.56;5899976;23;20448;-91
2022/12/31 04:17:52;;;;;;;0.50;0.20;;;;;;;-145.06;100.00;60892.56;5899174;23;20010;-91
2022/12/31 04:20:33;;;;;;;0.40;0.28;;;;;;;-145.06;100.00;60892.56;5899649;23;20010;-91
2022/12/31 04:23:12;;;;;;;0.38;0.20;;;;;;;-145.06;100.00;60892.56;5900003;23;20005;-90
2022/12/31 04:25:52;;;;;;;0.30;0.20;;;;;;;-145.06;100.00;60892.56;5899450;23;20010;-90
2022/12/31 04:28:31;;;;;;;0.20;0.20;;;;;;;-145.06;100.00;60892.56;5898213;23;20033;-90
2022/12/31 04:31:10;;;;;;;0.80;0.20;;;;;;;-145.06;100.00;60892.56;5897177;23;20014;-89
2022/12/31 04:34:08;;;;;;;0.20;0.20;;;;;;;-145.06;100.00;60892.56;5897301;23;20437;-93
2022/12/31 04:36:47;;;;;;;0.68;0.30;;;;;;;-145.06;100.00;60892.56;5897854;23;20589;-90
2022/12/31 04:39:27;;;;;;;0.30;0.20;;;;;;;-145.06;100.00;60892.56;5898217;23;20030;-90
2022/12/31 04:42:05;;;;;;;0.28;0.20;;;;;;;-145.06;100.00;60892.56;5897450;23;20005;-89
2022/12/31 04:44:44;;;;;;;0.85;0.22;;;;;;;-145.06;100.00;60892.56;5897941;23;20010;-89
2022/12/31 04:48:06;;;;;;;;;;;;;;;;;;;;;
2022/12/31 04:50:48;;;;;;;0.20;0.20;;;;;;;-145.06;100.00;60892.56;5930586;23;20002;-91
2022/12/31 04:53:28;;;;;;;0.63;0.45;;;;;;;-145.06;100.00;60892.56;5896561;23;20018;-92
2022/12/31 04:56:10;;;;;;;0.63;0.35;;;;;;;-145.06;100.00;60892.56;5898113;23;20010;-91
2022/12/31 04:58:57;;;;;;;1.23;0.35;;;;;;;-145.06;100.00;60892.56;5902119;23;20037;-91
2022/12/31 05:01:38;;;;;;;0.57;0.30;;;;;;;-145.06;100.00;60892.56;5902664;23;20005;-90
2022/12/31 05:04:17;;;;;;;1.75;0.20;;;;;;;-145.06;100.00;60892.56;5901966;23;20010;-91
2022/12/31 05:06:56;;;;;;;0.63;0.30;;;;;;;-145.06;100.00;60892.56;5901395;23;20429;-91
2022/12/31 05:09:35;;;;;;;0.30;0.20;;;;;;;-145.06;100.00;60892.56;5901605;23;20237;-92
2022/12/31 05:12:17;;;;;;;0.60;0.38;;;;;;;-145.06;100.00;60892.56;5904296;23;20322;-92
2022/12/31 05:14:56;;;;;;;0.90;0.22;;;;;;;-145.06;100.00;60892.56;5903292;23;20009;-91
2022/12/31 05:17:36;;;;;;;1.27;0.40;;;;;;;-145.06;100.00;60892.56;5902198;23;20010;-91
2022/12/31 05:20:15;;;;;;;0.60;0.30;;;;;;;-145.06;100.00;60892.56;5900235;23;20010;-93
2022/12/31 05:22:58;;;;;;;0.60;0.40;;;;;;;-145.06;100.00;60892.56;5899114;23;20277;-90
2022/12/31 05:25:37;;;;;;;0.65;0.30;;;;;;;-145.06;100.00;60892.56;5897683;23;20002;-92
2022/12/31 05:28:18;;;;;;;1.27;0.30;;;;;;;-145.06;100.00;60892.56;5897455;23;20033;-90
2022/12/31 05:30:58;;;;;;;1.52;0.40;;;;;;;-145.06;100.00;60892.56;5898272;23;20084;-91
2022/12/31 05:33:37;;;;;;;0.28;0.28;;;;;;;-145.06;100.00;60892.56;5897794;23;20314;-91
2022/12/31 05:36:16;;;;;;;1.17;0.43;;;;;;;-145.06;100.00;60892.56;5896928;23;20429;-91
2022/12/31 05:38:55;;;;;;;0.77;0.30;;;;;;;-145.06;100.00;60892.56;5897977;23;20010;-91
2022/12/31 05:41:34;;;;;;;0.40;0.28;;;;;;;-145.06;100.00;60892.56;5897892;23;20350;-90
2022/12/31 05:44:14;;;;;;;0.30;0.20;;;;;;;-145.06;100.00;60892.56;5898762;23;20014;-92
2022/12/31 05:46:54;;;;;;;0.55;0.30;;;;;;;-145.06;100.00;60892.56;5897590;23;20006;-91
2022/12/31 05:49:33;;;;;;;0.70;0.20;;;;;;;-145.06;100.00;60892.56;5897170;23;20010;-90
2022/12/31 05:52:12;;;;;;;0.65;0.40;;;;;;;-145.06;100.00;60892.56;5897496;23;20013;-91
2022/12/31 05:54:52;;;;;;;0.90;0.32;;;;;;;-145.06;100.00;60892.56;5899057;23;20014;-91
2022/12/31 05:57:31;;;;;;;1.45;0.68;;;;;;;-145.06;100.00;60892.56;5897864;23;20037;-91
2022/12/31 06:00:11;;;;;;;3.20;0.50;;;;;;;-145.06;100.00;60892.56;5898432;23;20403;-91
2022/12/31 06:02:50;;;;;;;0.80;0.35;;;;;;;-145.06;100.00;60892.56;5897452;23;20254;-91
2022/12/31 06:05:29;;;;;;;4.07;0.52;;;;;;;-145.06;100.00;60892.56;5909775;23;20014;-92
2022/12/31 06:08:10;;;;;;;1.50;0.47;;;;;;;-145.06;100.00;60892.56;5917366;23;20022;-91
2022/12/31 06:10:49;;;;;;;1.05;0.40;;;;;;;-145.06;100.00;60892.56;5901257;23;20065;-90
2022/12/31 06:13:28;;;;;;;0.82;0.50;;;;;;;-145.06;100.00;60892.56;5898443;23;20006;-91
2022/12/31 06:16:08;;;;;;;0.70;0.20;;;;;;;-145.06;100.00;60892.56;5898969;23;20010;-91
2022/12/31 06:18:49;;;;;;;1.95;0.65;;;;;;;-145.06;100.00;60892.56;5898313;23;20009;-90
2022/12/31 06:21:29;;;;;;;0.55;0.40;;;;;;;-145.06;100.00;60892.56;5898122;23;20010;-90
2022/12/31 06:24:08;;;;;;;0.82;0.35;;;;;;;-145.06;100.00;60892.56;5897848;23;20010;-92
2022/12/31 06:26:47;;;;;;;0.98;0.40;;;;;;;-145.06;100.00;60892.56;5897677;23;20006;-91
2022/12/31 06:29:26;;;;;;;0.98;0.30;;;;;;;-145.06;100.00;60892.56;5898502;23;20010;-91
2022/12/31 06:32:14;;;;;;;1.03;0.43;;;;;;;-145.06;100.00;60892.56;5898244;23;20325;-91
2022/12/31 06:34:55;;;;;;;0.50;0.30;;;;;;;-145.06;100.00;60892.56;5899677;23;20010;-92
2022/12/31 06:37:34;;;;;;;0.80;0.50;;;;;;;-145.06;100.00;60892.56;5897812;23;20006;-89
2022/12/31 06:40:16;;;;;;;0.30;0.30;;;;;;;-145.06;100.00;60892.56;5898322;23;20014;-92
2022/12/31 06:42:56;;;;;;;1.30;0.32;;;;;;;-145.06;100.00;60892.56;5897866;23;20006;-90
2022/12/31 06:45:34;;;;;;;1.13;0.38;;;;;;;-145.06;100.00;60892.56;5897649;23;20061;-91
2022/12/31 06:48:16;;;;;;;0.57;0.40;;;;;;;-145.06;100.00;60892.56;5897875;23;20085;-93
2022/12/31 06:50:56;;;;;;;1.23;0.38;;;;;;;-145.06;100.00;60892.56;5897330;23;20057;-90
2022/12/31 06:53:35;;;;;;;1.25;0.50;;;;;;;-145.06;100.00;60892.56;5897685;23;20006;-91
2022/12/31 06:56:27;;;;;;;1.40;0.40;;;;;;;-145.06;100.00;60892.56;5897688;23;20014;-91
2022/12/31 06:59:21;;;;;;;1.50;0.40;;;;;;;-145.06;100.00;60892.56;5897878;23;20010;-91
2022/12/31 07:02:31;;;;;;;0.80;0.38;;;;;;;-145.06;100.00;60892.56;5897551;23;20057;-91
2022/12/31 07:05:26;;;;;;;1.02;0.40;;;;;;;-145.06;100.00;60892.56;5897268;23;20009;-91
2022/12/31 07:08:30;;;;;;;0.60;0.30;;;;;;;-145.06;100.00;60892.56;5896908;23;20009;-90
2022/12/31 07:11:25;;;;;;;1.00;0.40;;;;;;;-145.06;100.00;60892.56;5898242;23;20029;-91
2022/12/31 07:14:45;;;;;;;1.55;0.32;;;;;;;-145.06;100.00;60892.56;5897928;23;20313;-91
2022/12/31 07:17:36;;;;;;;1.27;0.50;;;;;;;-145.06;100.00;60892.56;5812805;23;20011;-91
2022/12/31 07:20:17;;;;;;;1.58;0.32;;;;;;;-145.06;100.00;60892.56;5897954;23;20006;-92
2022/12/31 07:23:00;;;;;;;0.85;0.40;;;;;;;-145.06;100.00;60892.56;5897626;23;20001;-92
2022/12/31 07:25:47;;;;;;;2.08;0.63;;;;;;;-145.06;100.00;60892.56;5896718;23;20009;-91
2022/12/31 07:28:39;;;;;;;1.10;0.30;;;;;;;-145.06;100.00;60892.56;5895706;23;20266;-90
2022/12/31 07:31:52;;;;;;;1.13;0.30;;;;;;;-145.06;100.00;60892.56;5895300;23;20006;-90
2022/12/31 07:34:47;;;;;;;1.23;0.38;;;;;;;-145.06;100.00;60892.56;5895251;23;19998;-91
2022/12/31 07:37:39;;;;;;;1.15;0.40;;;;;;;-145.06;100.00;60892.56;5896577;23;20306;-90
2022/12/31 07:40:26;;;;;;;1.10;0.47;;;;;;;-145.06;100.00;60892.56;5895084;23;20123;-91
2022/12/31 07:43:27;;;;;;;1.08;0.30;;;;;;;-145.06;100.00;60892.56;5895306;23;20005;-91
2022/12/31 07:46:24;;;;;;;1.13;0.30;;;;;;;-145.06;100.00;60892.56;5894750;23;20006;-92
2022/12/31 07:49:09;;;;;;;0.98;0.45;;;;;;;-145.06;100.00;60892.56;5894857;23;20429;-92
2022/12/31 07:51:52;;;;;;;0.90;0.30;;;;;;;-145.06;100.00;60892.56;5896604;23;20081;-92
2022/12/31 07:54:31;;;;;;;0.63;0.40;;;;;;;-145.06;100.00;60892.56;5897699;23;20006;-91
2022/12/31 07:57:13;;;;;;;0.60;0.30;;;;;;;-145.06;100.00;60892.56;5897807;23;20005;-92
2022/12/31 08:00:00;;;;;;;0.82;0.40;;;;;;;-145.06;100.00;60892.56;5897748;23;20034;-92
2022/12/31 08:03:23;;;;;;;0.90;0.50;;;;;;;-145.06;100.00;60892.56;5898147;23;20002;-92
2022/12/31 08:06:20;;;;;;;3.15;0.57;;;;;;;-145.06;100.00;60892.56;5898123;23;20006;-91
2022/12/31 08:09:10;;;;;;;1.95;0.47;;;;;;;-145.06;100.00;60892.56;5920622;23;20005;-91
2022/12/31 08:14:20;;;;;;;0.52;0.43;;;;;;;-145.06;100.00;60892.56;5917940;23;19909;-91
2022/12/31 08:17:22;;;;;;;1.42;0.50;;;;;;;-145.06;100.00;60892.56;5903596;23;20014;-91
2022/12/31 08:20:03;;;;;;;2.15;0.57;;;;;;;-145.06;100.00;60892.56;5898096;23;20006;-92
2022/12/31 08:23:04;;;;;;;3.17;0.50;;;;;;;-145.06;100.00;60892.56;5898381;23;20010;-91
2022/12/31 08:25:49;;;;;;;1.70;0.50;;;;;;;-145.06;100.00;60892.56;5899323;23;20049;-93
2022/12/31 08:28:43;;;;;;;0.63;0.40;;;;;;;-145.06;100.00;60892.56;5897739;23;20005;-91
2022/12/31 08:31:50;;;;;;;1.10;0.60;;;;;;;-145.06;100.00;60892.56;5899260;23;20005;-90
2022/12/31 08:34:37;;;;;;;2.63;0.50;;;;;;;-145.06;100.00;60892.56;5899419;23;19998;-91
2022/12/31 08:37:38;;;;;;;2.17;0.60;;;;;;;-145.06;100.00;60892.56;5898321;23;20006;-92
2022/12/31 08:40:34;;;;;;;1.80;0.88;;;;;;;-145.06;100.00;60892.56;5896944;23;20014;-92
2022/12/31 08:43:29;;;;;;;2.13;0.60;;;;;;;-145.06;100.00;60892.56;5898111;23;20109;-91
2022/12/31 08:46:25;;;;;;;0.98;0.50;;;;;;;-145.06;100.00;60892.56;5897496;23;20084;-91
2022/12/31 08:49:04;;;;;;;1.50;0.40;;;;;;;-145.06;100.00;60892.56;5896749;23;20010;-90
2022/12/31 08:51:43;;;;;;;1.70;0.60;;;;;;;-145.06;100.00;60892.56;5897433;23;20005;-91
2022/12/31 08:54:23;;;;;;;1.25;0.80;;;;;;;-145.06;100.00;60892.56;5897158;23;20010;-91
2022/12/31 08:57:34;;;;;;;1.23;0.70;;;;;;;-145.06;100.00;60892.56;5896619;23;20006;-91
2022/12/31 09:00:17;;;;;;;1.75;0.60;;;;;;;-145.06;100.00;60892.56;5898038;23;20461;-92
2022/12/31 09:03:14;;;;;;;1.20;0.57;;;;;;;-145.06;100.00;60892.56;5876446;23;20473;-92
2022/12/31 09:06:07;;;;;;;1.92;0.50;;;;;;;-145.06;100.00;60892.56;5897110;23;20009;-92
2022/12/31 09:08:52;;;;;;;1.10;0.50;;;;;;;-145.06;100.00;60892.56;5898427;23;20002;-90
2022/12/31 09:15:32;;;;;;;3.97;1.02;;;;;;;-145.06;100.00;60892.56;5928525;23;20084;-92
2022/12/31 09:18:19;;;;;;;1.60;0.60;;;;;;;-145.06;100.00;60892.56;5898030;23;20089;-93
2022/12/31 09:21:04;;;;;;;2.40;0.55;;;;;;;-145.06;100.00;60892.56;5899918;23;20029;-92
2022/12/31 09:23:44;;;;;;;2.72;0.50;;;;;;;-145.06;100.00;60892.56;5899992;23;20001;-91
2022/12/31 09:26:37;;;;;;;1.58;0.60;;;;;;;-145.06;100.00;60892.56;5900650;23;20010;-90
2022/12/31 09:29:45;;;;;;;1.40;0.65;;;;;;;-145.06;100.00;60892.56;5900215;23;20022;-91
2022/12/31 09:32:51;;;;;;;1.00;0.50;;;;;;;-145.06;100.00;60892.56;5899339;23;20006;-92
2022/12/31 09:36:33;;;;;;;1.63;0.65;;;;;;;-145.06;100.00;60892.56;5897946;23;20361;-91
2022/12/31 09:39:26;;;;;;;2.47;0.90;;;;;;;-145.06;100.00;60892.56;5898095;23;20013;-91
2022/12/31 09:42:43;;;;;;;2.05;0.73;;;;;;;-145.06;100.00;60892.56;5897893;23;20025;-92
2022/12/31 09:46:20;;;;;;;;;;;;;;;;;;;;;
2022/12/31 09:52:48;;;;;;;0.63;0.40;;;;;;;-145.06;100.00;60892.56;5925942;23;20096;-93
2022/12/31 09:55:41;;;;;;;1.90;0.77;;;;;;;-145.06;100.00;60892.56;5894908;23;20006;-92
2022/12/31 09:58:27;;;;;;;2.08;0.60;;;;;;;-145.06;100.00;60892.56;5894514;23;20002;-91
2022/12/31 10:01:45;;;;;;;1.25;0.63;;;;;;;-145.06;100.00;60892.56;5896138;23;20010;-92
2022/12/31 10:04:38;;;;;;;1.05;0.40;;;;;;;-145.06;100.00;60892.56;5894554;23;20014;-91
2022/12/31 10:07:30;;;;;;;1.60;0.40;;;;;;;-145.06;100.00;60892.56;5894936;23;20010;-92
2022/12/31 10:10:24;;;;;;;1.17;0.55;;;;;;;-145.06;100.00;60892.56;5927526;23;20009;-92
2022/12/31 10:13:25;;;;;;;1.05;0.55;;;;;;;-145.06;100.00;60892.56;5895856;23;20002;-93
2022/12/31 10:16:20;;;;;;;1.45;0.50;;;;;;;-145.06;100.00;60892.56;5896796;23;20006;-92
2022/12/31 10:19:38;;;;;;;0.70;0.30;;;;;;;-145.06;100.00;60892.56;5894203;23;20006;-91
2022/12/31 10:22:31;;;;;;;1.70;0.70;;;;;;;-145.06;100.00;60892.56;5894537;23;20010;-92
2022/12/31 10:25:34;;;;;;;0.63;0.45;;;;;;;-145.06;100.00;60892.56;5898803;23;20005;-92
2022/12/31 10:29:11;;;;;;;0.80;0.40;;;;;;;-145.06;100.00;60892.56;5913914;23;20021;-92
2022/12/31 10:32:52;;;;;;;;;;;;;;;;;;;;;
2022/12/31 10:35:41;;;;;;;2.03;0.70;;;;;;;-145.06;100.00;60892.56;5925334;23;20322;-91
2022/12/31 10:38:58;;;;;;;1.40;0.50;;;;;;;-145.06;100.00;60892.56;5894026;23;20005;-92
2022/12/31 10:41:51;;;;;;;2.95;0.63;;;;;;;-145.06;100.00;60892.56;5893685;23;20033;-91
2022/12/31 10:45:05;;;;;;;0.90;0.50;;;;;;;-145.06;100.00;60892.56;5893783;23;20302;-92
2022/12/31 10:48:21;;;;;;;1.15;0.43;;;;;;;-145.06;100.00;60892.56;5894607;23;20038;-92
2022/12/31 10:51:24;;;;;;;1.52;0.60;;;;;;;-145.06;100.00;60892.56;5892477;23;20025;-93
2022/12/31 10:54:54;;;;;;;1.17;0.40;;;;;;;-145.06;100.00;60892.56;5892141;23;20009;-93
2022/12/31 10:58:01;;;;;;;1.50;0.52;;;;;;;-145.06;100.00;60892.56;5781578;23;20012;-92
2022/12/31 11:01:16;;;;;;;1.05;0.50;;;;;;;-145.06;100.00;60892.56;5781345;23;20012;-92
2022/12/31 11:04:27;;;;;;;1.60;0.45;;;;;;;-145.06;100.00;60892.56;5870938;23;20002;-92
2022/12/31 11:07:50;;;;;;;1.55;0.65;;;;;;;-145.06;100.00;60892.56;5893078;23;20014;-92
2022/12/31 11:10:54;;;;;;;1.55;0.60;;;;;;;-145.06;100.00;60892.56;5893926;23;20009;-92
2022/12/31 11:13:42;;;;;;;1.65;0.40;;;;;;;-145.06;100.00;60892.56;5893825;23;20030;-93
2022/12/31 11:16:45;;;;;;;1.60;0.60;;;;;;;-145.06;100.00;60892.56;5893450;23;20018;-92
2022/12/31 11:19:43;;;;;;;2.25;0.57;;;;;;;-145.06;100.00;60892.56;5893830;23;20002;-92
2022/12/31 11:23:19;;;;;;;2.55;0.70;;;;;;;-145.06;100.00;60892.56;5893912;23;20009;-92
2022/12/31 11:26:10;;;;;;;1.45;0.70;;;;;;;-145.06;100.00;60892.56;5780617;23;20016;-92
2022/12/31 11:29:05;;;;;;;1.63;0.73;;;;;;;-145.06;100.00;60892.56;5832653;23;20010;-92
2022/12/31 11:32:06;;;;;;;1.75;0.50;;;;;;;-145.06;100.00;60892.56;5894687;23;20006;-93
2022/12/31 11:35:14;;;;;;;2.08;0.70;;;;;;;-145.06;100.00;60892.56;5894958;23;20006;-92
2022/12/31 11:38:16;;;;;;;3.03;0.68;;;;;;;-145.06;100.00;60892.56;5894667;23;20006;-91
2022/12/31 11:41:32;;;;;;;1.77;0.90;;;;;;;-145.06;100.00;60892.56;5895848;23;20021;-91
2022/12/31 11:45:04;;;;;;;1.08;0.43;;;;;;;-145.06;100.00;60892.56;5894964;23;20461;-94
2022/12/31 11:48:06;;;;;;;2.55;0.50;;;;;;;-145.06;100.00;60892.56;5918290;23;20311;-94
2022/12/31 11:51:11;;;;;;;1.90;0.50;;;;;;;-145.06;100.00;60892.56;5895057;23;20009;-92
2022/12/31 11:54:23;;;;;;;1.38;0.60;;;;;;;-145.06;100.00;60892.56;5895910;23;20002;-91
2022/12/31 11:57:21;;;;;;;1.63;0.75;;;;;;;-145.06;100.00;60892.56;5893799;23;20002;-92
2022/12/31 12:00:18;;;;;;;0.88;0.50;;;;;;;-145.06;100.00;60892.56;5895107;23;20034;-93
2022/12/31 12:03:05;;;;;;;0.73;0.50;;;;;;;-145.06;100.00;60892.56;5895721;23;19998;-93
2022/12/31 12:05:45;;;;;;;1.15;0.55;;;;;;;-145.06;100.00;60892.56;5894867;23;20014;-93
2022/12/31 12:08:29;;;;;;;1.42;0.52;;;;;;;-145.06;100.00;60892.56;5895306;23;20013;-92
2022/12/31 12:11:20;;;;;;;1.88;0.52;;;;;;;-145.06;100.00;60892.56;5894540;23;20378;-92
2022/12/31 12:14:24;;;;;;;1.45;0.50;;;;;;;-145.06;100.00;60892.56;5894703;23;20309;-94
2022/12/31 12:17:30;;;;;;;1.52;0.57;;;;;;;-145.06;100.00;60892.56;5892177;23;20021;-94
2022/12/31 12:20:22;;;;;;;0.60;0.40;;;;;;;-145.06;100.00;60892.56;5896353;23;20018;-93
2022/12/31 12:23:16;;;;;;;1.77;0.47;;;;;;;-145.06;100.00;60892.56;5895072;23;20313;-92
2022/12/31 12:25:59;;;;;;;0.63;0.40;;;;;;;-145.06;100.00;60892.56;5893613;23;20014;-91
2022/12/31 12:28:44;;;;;;;1.42;0.50;;;;;;;-145.06;100.00;60892.56;5867559;23;20018;-93
2022/12/31 12:35:20;;;;;;;2.22;0.60;;;;;;;-145.06;100.00;60892.56;5864469;23;20335;-92
2022/12/31 12:39:01;;;;;;;;;;;;;;;;;;;;;
2022/12/31 12:41:43;;;;;;;1.38;0.55;;;;;;;-145.06;100.00;60892.56;5897022;23;20029;-93
2022/12/31 12:44:30;;;;;;;1.92;0.57;;;;;;;-145.06;100.00;60892.56;5867219;23;20014;-92
2022/12/31 12:47:16;;;;;;;1.10;0.50;;;;;;;-145.06;100.00;60892.56;5868192;23;20085;-93
2022/12/31 12:50:44;;;;;;;1.52;0.40;;;;;;;-145.06;100.00;60892.56;5869670;23;20010;-92
2022/12/31 12:54:17;;;;;;;1.85;0.40;;;;;;;-145.06;100.00;60892.56;5868492;23;20025;-92
2022/12/31 12:57:26;;;;;;;1.00;0.40;;;;;;;-145.06;100.00;60892.56;5866443;23;20066;-93
2022/12/31 13:00:46;;;;;;;1.98;0.90;;;;;;;-145.06;100.00;60892.56;5868781;23;20010;-92
2022/12/31 13:04:29;;;;;;;1.55;0.68;;;;;;;-145.06;100.00;60892.56;5868254;23;20010;-92
2022/12/31 13:08:01;;;;;;;;;;;;;;;;;;;;;
2022/12/31 13:11:02;;;;;;;2.42;0.57;;;;;;;-145.06;100.00;60892.56;5898452;23;20006;-92
2022/12/31 13:13:59;;;;;;;1.23;0.60;;;;;;;-145.06;100.00;60892.56;5869295;23;20006;-92
2022/12/31 13:17:08;;;;;;;1.30;0.70;;;;;;;-145.06;100.00;60892.56;5875812;23;20006;-92
2022/12/31 13:20:10;;;;;;;0.88;0.43;;;;;;;-145.06;100.00;60892.56;5896691;23;20021;-93
2022/12/31 13:23:02;;;;;;;0.68;0.40;;;;;;;-145.06;100.00;60892.56;5896834;23;20496;-92
2022/12/31 13:26:16;;;;;;;;;;;;;;;;;;;;;
2022/12/31 13:29:04;;;;;;;0.90;0.70;;;;;;;-145.06;100.00;60892.56;5900979;23;20006;-92
2022/12/31 13:31:51;;;;;;;1.55;0.60;;;;;;;-145.06;100.00;60892.56;5871392;23;20326;-93
2022/12/31 13:34:35;;;;;;;0.80;0.43;;;;;;;-145.06;100.00;60892.56;5896244;23;20006;-92